Time;durP1;ratioP1;P1;durP2;ratioP2;P2;SDS_P1;SDS_P2;PMS_P1;PMS_P2;Temp;Humidity;BMP_temperature;BMP_pressure;BME280_temperature;BME280_humidity;BME280_pressure;Samples;Min_cycle;Max_cycle;Signal;HPM_P1;HPM_P2
2022/06/14 00:03:13;;;;;;;21.97;20.77;;;;;;;;;;5013512;28;20420;-78
2022/06/14 00:05:41;;;;;;;22.90;21.50;;;;;;;;;;4995548;28;20981;-77
2022/06/14 00:08:10;;;;;;;21.70;20.60;;;;;;;;;;5013334;28;20440;-78
2022/06/14 00:10:37;;;;;;;23.07;21.67;;;;;;;;;;5013226;28;20831;-78
2022/06/14 00:13:05;;;;;;;21.90;20.50;;;;;;;;;;5013289;28;20429;-78
2022/06/14 00:15:33;;;;;;;22.77;21.37;;;;;;;;;;5013099;28;20407;-78
2022/06/14 00:18:00;;;;;;;22.33;20.60;;;;;;;;;;5013123;28;20420;-78
2022/06/14 00:20:27;;;;;;;22.50;21.30;;;;;;;;;;5013069;28;20935;-78
2022/06/14 00:22:55;;;;;;;22.53;21.33;;;;;;;;;;5013164;28;20751;-78
2022/06/14 00:25:26;;;;;;;22.87;21.47;;;;;;;;;;5013192;28;20467;-78
2022/06/14 00:27:54;;;;;;;21.97;20.70;;;;;;;;;;5012996;28;20448;-78
2022/06/14 00:30:22;;;;;;;22.30;21.00;;;;;;;;;;4995412;28;20925;-78
2022/06/14 00:32:49;;;;;;;22.73;21.50;;;;;;;;;;5013398;28;20423;-78
2022/06/14 00:35:17;;;;;;;22.40;21.20;;;;;;;;;;5013061;28;20791;-78
2022/06/14 00:37:44;;;;;;;23.33;22.03;;;;;;;;;;5012817;28;20451;-78
2022/06/14 00:40:14;;;;;;;22.47;21.20;;;;;;;;;;5013033;28;20408;-78
2022/06/14 00:42:43;;;;;;;22.30;21.10;;;;;;;;;;5012819;28;20428;-78
2022/06/14 00:45:30;;;;;;;22.90;21.43;;;;;;;;;;5012923;28;20478;-78
2022/06/14 00:48:01;;;;;;;22.90;21.57;;;;;;;;;;5012764;28;20430;-78
2022/06/14 00:50:29;;;;;;;21.97;20.87;;;;;;;;;;5012647;28;20420;-78
2022/06/14 00:52:59;;;;;;;22.40;20.90;;;;;;;;;;5013182;28;20420;-78
2022/06/14 00:55:28;;;;;;;22.23;20.77;;;;;;;;;;5013023;28;20423;-78
2022/06/14 00:58:00;;;;;;;22.17;20.77;;;;;;;;;;5013140;28;20415;-78
2022/06/14 01:00:30;;;;;;;21.77;20.57;;;;;;;;;;5012903;28;20921;-78
2022/06/14 01:03:00;;;;;;;22.67;21.47;;;;;;;;;;5013048;28;20441;-78
2022/06/14 01:06:05;;;;;;;22.13;21.03;;;;;;;;;;5012617;28;20475;-78
2022/06/14 01:08:20;;;;;;;22.90;21.60;;;;;;;;;;5012245;28;20422;-78
2022/06/14 01:10:48;;;;;;;22.27;20.97;;;;;;;;;;5012505;28;20436;-78
2022/06/14 01:13:17;;;;;;;21.83;20.63;;;;;;;;;;5012635;28;20461;-78
2022/06/14 01:15:45;;;;;;;22.10;20.70;;;;;;;;;;5012543;28;20411;-78
2022/06/14 01:18:14;;;;;;;21.13;20.00;;;;;;;;;;4995478;28;20415;-78
2022/06/14 01:20:41;;;;;;;22.67;21.30;;;;;;;;;;5012676;28;20412;-78
2022/06/14 01:23:11;;;;;;;21.93;20.60;;;;;;;;;;5012780;28;20456;-78
2022/06/14 01:25:47;;;;;;;21.17;19.97;;;;;;;;;;5012598;28;20492;-78
2022/06/14 01:28:15;;;;;;;21.93;20.13;;;;;;;;;;5012479;28;20985;-78
2022/06/14 01:30:45;;;;;;;21.80;20.67;;;;;;;;;;5012555;28;20454;-79
2022/06/14 01:33:14;;;;;;;22.53;21.30;;;;;;;;;;5012743;28;20446;-77
2022/06/14 01:35:44;;;;;;;22.60;21.40;;;;;;;;;;5015999;28;20446;-78
2022/06/14 01:38:14;;;;;;;22.43;21.20;;;;;;;;;;5015804;28;20448;-78
2022/06/14 01:40:47;;;;;;;22.20;20.80;;;;;;;;;;5016040;28;20427;-78
2022/06/14 01:43:23;;;;;;;22.53;21.33;;;;;;;;;;5016267;28;20773;-78
2022/06/14 01:45:57;;;;;;;22.50;21.00;;;;;;;;;;5015867;28;20471;-78
2022/06/14 01:48:28;;;;;;;21.80;20.60;;;;;;;;;;5016097;28;20820;-78
2022/06/14 01:53:50;;;;;;;22.73;21.43;;;;;;;;;;5015842;28;20418;-78
2022/06/14 01:56:22;;;;;;;23.43;22.00;;;;;;;;;;5016014;28;20415;-78
2022/06/14 01:58:55;;;;;;;22.53;21.40;;;;;;;;;;5015770;28;20427;-77
2022/06/14 02:01:27;;;;;;;21.97;20.70;;;;;;;;;;5015908;28;20889;-77
2022/06/14 02:06:49;;;;;;;21.83;20.60;;;;;;;;;;5015641;28;20459;-78
2022/06/14 02:09:20;;;;;;;21.77;20.60;;;;;;;;;;5015625;28;20942;-78
2022/06/14 02:11:48;;;;;;;22.10;20.90;;;;;;;;;;5015639;28;20407;-78
2022/06/14 02:14:20;;;;;;;22.70;21.33;;;;;;;;;;5015486;28;20412;-78
2022/06/14 02:16:51;;;;;;;22.20;20.80;;;;;;;;;;5015374;28;20448;-78
2022/06/14 02:19:22;;;;;;;23.50;22.00;;;;;;;;;;5015486;28;20428;-78
2022/06/14 02:21:51;;;;;;;21.70;20.47;;;;;;;;;;5015128;28;20415;-78
2022/06/14 02:24:22;;;;;;;22.23;20.73;;;;;;;;;;5015151;28;20431;-78
2022/06/14 02:26:50;;;;;;;21.30;20.10;;;;;;;;;;5015397;28;20463;-79
2022/06/14 02:29:19;;;;;;;21.50;20.30;;;;;;;;;;5015534;28;20456;-78
2022/06/14 02:31:49;;;;;;;21.77;20.63;;;;;;;;;;5015173;28;20487;-78
2022/06/14 02:34:19;;;;;;;22.60;21.20;;;;;;;;;;5015177;28;20470;-78
2022/06/14 02:36:49;;;;;;;22.70;21.40;;;;;;;;;;5014858;28;20424;-78
2022/06/14 02:39:17;;;;;;;22.20;20.73;;;;;;;;;;5014653;28;20459;-79
2022/06/14 02:41:49;;;;;;;22.30;20.60;;;;;;;;;;5015033;28;20889;-78
2022/06/14 02:44:19;;;;;;;22.00;20.90;;;;;;;;;;5014401;28;20412;-78
2022/06/14 02:46:51;;;;;;;22.40;21.00;;;;;;;;;;5014664;28;20487;-79
2022/06/14 02:49:22;;;;;;;21.80;20.40;;;;;;;;;;5015111;28;20512;-78
2022/06/14 02:51:52;;;;;;;22.37;20.97;;;;;;;;;;5014989;28;20437;-78
2022/06/14 02:54:22;;;;;;;22.07;20.87;;;;;;;;;;5014636;28;20441;-78
2022/06/14 02:56:53;;;;;;;21.73;20.57;;;;;;;;;;5014444;28;20423;-79
2022/06/14 02:59:23;;;;;;;21.93;20.73;;;;;;;;;;5014706;28;20433;-78
2022/06/14 03:01:53;;;;;;;21.30;19.67;;;;;;;;;;5014830;28;20416;-78
2022/06/14 03:04:21;;;;;;;21.43;20.27;;;;;;;;;;5015008;28;20419;-78
2022/06/14 03:06:52;;;;;;;22.33;20.93;;;;;;;;;;5014282;28;20479;-78
2022/06/14 03:09:21;;;;;;;21.97;20.67;;;;;;;;;;5014326;28;20423;-78
2022/06/14 03:11:54;;;;;;;20.87;19.70;;;;;;;;;;5014762;28;20416;-79
2022/06/14 03:14:25;;;;;;;23.03;21.73;;;;;;;;;;5014253;28;20411;-78
2022/06/14 03:16:58;;;;;;;21.20;20.10;;;;;;;;;;5014456;28;20851;-78
2022/06/14 03:19:27;;;;;;;22.17;20.70;;;;;;;;;;5014207;28;20427;-79
2022/06/14 03:21:56;;;;;;;23.07;21.57;;;;;;;;;;5014124;28;20801;-78
2022/06/14 03:24:29;;;;;;;21.60;20.50;;;;;;;;;;5014163;28;20903;-78
2022/06/14 03:27:02;;;;;;;22.03;20.73;;;;;;;;;;5014190;28;20490;-78
2022/06/14 03:29:32;;;;;;;22.40;21.00;;;;;;;;;;5013925;28;20445;-78
2022/06/14 03:32:03;;;;;;;22.63;21.43;;;;;;;;;;5014210;28;20444;-78
2022/06/14 03:34:32;;;;;;;22.00;20.80;;;;;;;;;;5014054;28;20476;-78
2022/06/14 03:37:00;;;;;;;22.37;21.13;;;;;;;;;;5014081;28;20422;-78
2022/06/14 03:39:33;;;;;;;22.87;21.47;;;;;;;;;;5013684;28;20466;-78
2022/06/14 03:42:03;;;;;;;21.53;20.33;;;;;;;;;;5013848;28;20438;-79
2022/06/14 03:44:31;;;;;;;21.90;20.53;;;;;;;;;;5013686;28;20412;-77
2022/06/14 03:47:14;;;;;;;21.93;20.50;;;;;;;;;;5013625;28;21146;-78
2022/06/14 03:49:44;;;;;;;21.50;20.07;;;;;;;;;;5013891;28;20458;-78
2022/06/14 03:52:15;;;;;;;22.53;21.23;;;;;;;;;;5013779;28;20415;-78
2022/06/14 03:54:48;;;;;;;22.07;20.87;;;;;;;;;;4995919;28;20935;-78
2022/06/14 03:57:27;;;;;;;22.30;20.80;;;;;;;;;;5013098;28;20410;-77
2022/06/14 04:00:09;;;;;;;21.07;19.63;;;;;;;;;;5013376;28;20422;-78
2022/06/14 04:05:54;;;;;;;21.90;20.40;;;;;;;;;;5011231;28;20475;-78
2022/06/14 04:08:30;;;;;;;21.17;19.90;;;;;;;;;;4989318;28;20432;-78
2022/06/14 04:11:04;;;;;;;20.90;19.50;;;;;;;;;;5013557;28;20473;-78
2022/06/14 04:13:42;;;;;;;20.87;19.63;;;;;;;;;;5013135;28;20774;-78
2022/06/14 04:16:13;;;;;;;20.03;18.93;;;;;;;;;;5013472;28;20449;-77
2022/06/14 04:18:47;;;;;;;20.87;19.67;;;;;;;;;;5013417;28;20420;-77
2022/06/14 04:21:31;;;;;;;21.77;20.37;;;;;;;;;;5013545;28;20495;-78
2022/06/14 04:23:59;;;;;;;21.03;19.93;;;;;;;;;;5013370;28;20429;-78
2022/06/14 04:26:29;;;;;;;21.70;20.30;;;;;;;;;;5013320;28;20492;-78
2022/06/14 04:28:59;;;;;;;22.10;20.80;;;;;;;;;;5013292;28;20469;-77
2022/06/14 04:31:31;;;;;;;21.20;20.00;;;;;;;;;;5012900;28;20436;-77
2022/06/14 04:34:00;;;;;;;21.73;20.40;;;;;;;;;;5013191;28;20552;-78
2022/06/14 04:36:30;;;;;;;22.43;21.13;;;;;;;;;;4995071;28;20431;-78
2022/06/14 04:38:58;;;;;;;22.40;21.10;;;;;;;;;;5012812;28;20459;-78
2022/06/14 04:41:29;;;;;;;23.70;22.30;;;;;;;;;;5012814;28;20423;-78
2022/06/14 04:43:59;;;;;;;22.03;20.67;;;;;;;;;;5013138;28;20439;-78
2022/06/14 04:46:29;;;;;;;21.67;20.40;;;;;;;;;;4995290;28;20529;-78
2022/06/14 04:48:58;;;;;;;22.73;21.33;;;;;;;;;;5012880;28;20423;-78
2022/06/14 04:51:28;;;;;;;23.03;21.63;;;;;;;;;;5012946;28;20416;-78
2022/06/14 04:53:59;;;;;;;23.00;21.50;;;;;;;;;;5012653;28;20458;-78
2022/06/14 04:56:31;;;;;;;22.50;21.27;;;;;;;;;;5012976;28;20407;-78
2022/06/14 04:59:03;;;;;;;23.00;21.60;;;;;;;;;;5012814;28;20766;-78
2022/06/14 05:01:34;;;;;;;23.23;21.83;;;;;;;;;;5012687;28;20494;-78
2022/06/14 05:04:04;;;;;;;24.03;22.63;;;;;;;;;;5012487;28;20468;-78
2022/06/14 05:06:34;;;;;;;23.73;22.07;;;;;;;;;;5012322;28;20966;-78
2022/06/14 05:09:04;;;;;;;23.67;22.17;;;;;;;;;;5015586;28;20411;-78
2022/06/14 05:11:37;;;;;;;22.83;21.53;;;;;;;;;;5016710;28;20415;-78
2022/06/14 05:14:08;;;;;;;23.23;21.50;;;;;;;;;;5016735;28;20408;-78
2022/06/14 05:16:38;;;;;;;23.40;22.00;;;;;;;;;;5016645;28;20765;-78
2022/06/14 05:19:09;;;;;;;23.30;21.83;;;;;;;;;;5016538;28;20467;-78
2022/06/14 05:21:41;;;;;;;23.03;21.60;;;;;;;;;;5016254;28;20432;-77
2022/06/14 05:24:08;;;;;;;22.77;21.20;;;;;;;;;;5016508;28;20429;-78
2022/06/14 05:26:41;;;;;;;21.93;20.60;;;;;;;;;;5016675;28;20480;-82
2022/06/14 05:29:14;;;;;;;23.17;21.60;;;;;;;;;;5016608;28;20438;-82
2022/06/14 05:31:45;;;;;;;22.67;21.20;;;;;;;;;;4998917;28;20851;-74
2022/06/14 05:34:16;;;;;;;23.43;22.03;;;;;;;;;;5035018;28;20419;-82
2022/06/14 05:36:46;;;;;;;22.97;21.47;;;;;;;;;;5036415;28;20434;-84
2022/06/14 05:39:16;;;;;;;22.93;21.53;;;;;;;;;;5036177;28;20450;-83
2022/06/14 05:41:46;;;;;;;24.10;22.30;;;;;;;;;;5036434;28;20410;-80
2022/06/14 05:44:16;;;;;;;22.60;21.20;;;;;;;;;;5036295;28;20461;-81
2022/06/14 05:46:47;;;;;;;23.30;21.80;;;;;;;;;;5035455;28;20808;-81
2022/06/14 05:49:16;;;;;;;23.83;22.40;;;;;;;;;;5035952;28;20859;-79
2022/06/14 05:51:46;;;;;;;23.87;22.43;;;;;;;;;;5035658;28;20834;-79
2022/06/14 05:54:18;;;;;;;23.70;22.13;;;;;;;;;;5035832;28;20406;-80
2022/06/14 05:56:49;;;;;;;24.77;23.10;;;;;;;;;;5035862;28;20440;-80
2022/06/14 05:59:20;;;;;;;23.37;21.87;;;;;;;;;;5035964;28;20419;-80
2022/06/14 06:01:50;;;;;;;22.10;21.00;;;;;;;;;;5035428;28;20790;-80
2022/06/14 06:04:19;;;;;;;23.07;21.77;;;;;;;;;;5035329;28;20419;-80
2022/06/14 06:06:48;;;;;;;23.83;22.43;;;;;;;;;;5035295;28;20450;-80
2022/06/14 06:09:20;;;;;;;23.83;22.27;;;;;;;;;;5035565;28;20418;-80
2022/06/14 06:11:50;;;;;;;24.40;22.90;;;;;;;;;;5034968;28;20892;-80
2022/06/14 06:14:20;;;;;;;24.13;22.57;;;;;;;;;;5035262;28;20411;-80
2022/06/14 06:16:50;;;;;;;23.70;22.30;;;;;;;;;;5035093;28;20411;-79
2022/06/14 06:19:20;;;;;;;24.03;22.53;;;;;;;;;;5034376;28;20415;-79
2022/06/14 06:21:52;;;;;;;24.40;22.80;;;;;;;;;;5034884;28;20407;-79
2022/06/14 06:24:22;;;;;;;24.67;23.00;;;;;;;;;;5017383;28;20498;-80
2022/06/14 06:26:51;;;;;;;25.30;23.43;;;;;;;;;;5029635;28;20489;-79
2022/06/14 06:29:23;;;;;;;24.17;22.50;;;;;;;;;;5015201;28;20441;-80
2022/06/14 06:31:50;;;;;;;25.03;23.40;;;;;;;;;;5015376;28;20473;-79
2022/06/14 06:34:18;;;;;;;26.00;24.03;;;;;;;;;;5015276;28;20423;-80
2022/06/14 06:36:50;;;;;;;24.77;23.37;;;;;;;;;;5014846;28;20468;-79
2022/06/14 06:39:25;;;;;;;25.63;23.90;;;;;;;;;;5014803;28;20485;-79
2022/06/14 06:41:55;;;;;;;25.27;23.37;;;;;;;;;;4997928;28;20908;-79
2022/06/14 06:44:31;;;;;;;23.90;22.50;;;;;;;;;;5015177;28;20495;-79
2022/06/14 06:47:00;;;;;;;25.03;23.20;;;;;;;;;;5014683;28;20486;-79
2022/06/14 06:49:30;;;;;;;26.27;24.20;;;;;;;;;;5014681;28;20452;-78
2022/06/14 06:52:01;;;;;;;25.20;23.30;;;;;;;;;;5014931;28;20453;-79
2022/06/14 06:54:33;;;;;;;25.70;23.93;;;;;;;;;;5014772;28;20502;-80
2022/06/14 06:57:01;;;;;;;24.17;22.50;;;;;;;;;;4997191;28;20511;-80
2022/06/14 06:59:33;;;;;;;26.20;24.60;;;;;;;;;;5014769;28;20419;-80
2022/06/14 07:02:01;;;;;;;24.90;23.20;;;;;;;;;;5014832;28;20423;-79
2022/06/14 07:07:18;;;;;;;25.80;24.00;;;;;;;;;;5014214;28;20443;-75
2022/06/14 07:09:47;;;;;;;25.90;24.00;;;;;;;;;;5014305;28;20997;-81
2022/06/14 07:12:16;;;;;;;25.27;23.30;;;;;;;;;;5014283;28;20423;-75
2022/06/14 07:14:50;;;;;;;24.37;22.60;;;;;;;;;;5014718;28;20430;-82
2022/06/14 07:17:19;;;;;;;23.70;22.00;;;;;;;;;;5014810;28;20441;-80
2022/06/14 07:19:49;;;;;;;23.17;21.67;;;;;;;;;;5014258;28;20419;-80
2022/06/14 07:22:19;;;;;;;24.17;22.63;;;;;;;;;;5014211;28;20415;-78
2022/06/14 07:24:53;;;;;;;24.73;22.90;;;;;;;;;;5014033;28;20754;-80
2022/06/14 07:27:23;;;;;;;24.37;22.67;;;;;;;;;;5006113;28;20457;-80
2022/06/14 07:29:53;;;;;;;24.60;22.93;;;;;;;;;;5033477;28;20423;-78
2022/06/14 07:32:26;;;;;;;24.37;22.60;;;;;;;;;;5032590;28;20465;-79
2022/06/14 07:34:54;;;;;;;24.03;22.60;;;;;;;;;;5034397;28;20429;-83
2022/06/14 07:37:27;;;;;;;24.37;22.77;;;;;;;;;;5034262;28;20423;-79
2022/06/14 07:39:57;;;;;;;23.73;22.33;;;;;;;;;;5017161;28;20458;-91
2022/06/14 07:42:27;;;;;;;24.80;23.00;;;;;;;;;;5035568;28;20418;-92
2022/06/14 07:44:58;;;;;;;23.97;22.40;;;;;;;;;;5038276;28;20426;-92
2022/06/14 07:47:33;;;;;;;23.20;21.60;;;;;;;;;;5036789;28;20486;-93
2022/06/14 07:50:04;;;;;;;23.70;22.00;;;;;;;;;;5035785;28;20451;-91
2022/06/14 07:52:34;;;;;;;24.97;22.80;;;;;;;;;;5043062;28;20490;-85
2022/06/14 07:55:04;;;;;;;25.90;24.00;;;;;;;;;;5050526;28;20471;-89
2022/06/14 07:57:33;;;;;;;23.70;22.30;;;;;;;;;;5040448;28;20410;-90
2022/06/14 08:01:07;;;;;;;23.77;22.13;;;;;;;;;;5053595;28;20462;-91
2022/06/14 08:02:53;;;;;;;22.90;21.50;;;;;;;;;;5051919;28;20411;-92
2022/06/14 08:05:22;;;;;;;23.63;22.20;;;;;;;;;;5050328;28;20422;-91
2022/06/14 08:07:50;;;;;;;22.30;20.80;;;;;;;;;;5035382;28;20454;-92
2022/06/14 08:10:19;;;;;;;23.20;21.70;;;;;;;;;;5035381;28;20441;-92
2022/06/14 08:12:51;;;;;;;23.43;21.83;;;;;;;;;;5034746;28;20418;-92
2022/06/14 08:15:22;;;;;;;22.93;21.30;;;;;;;;;;5034633;28;20422;-92
2022/06/14 08:17:53;;;;;;;22.60;21.07;;;;;;;;;;5034963;28;20411;-92
2022/06/14 08:20:26;;;;;;;23.57;22.03;;;;;;;;;;5035047;28;20411;-84
2022/06/14 08:22:55;;;;;;;23.27;21.70;;;;;;;;;;5034869;28;20437;-92
2022/06/14 08:25:25;;;;;;;23.83;22.23;;;;;;;;;;5034630;28;20432;-91
2022/06/14 08:27:54;;;;;;;23.53;22.03;;;;;;;;;;5034740;28;20450;-92
2022/06/14 08:30:26;;;;;;;24.23;22.70;;;;;;;;;;5034596;28;20454;-92
2022/06/14 08:32:56;;;;;;;25.47;23.67;;;;;;;;;;5034687;28;20415;-92
2022/06/14 08:35:26;;;;;;;24.10;22.50;;;;;;;;;;5034353;28;20475;-80
2022/06/14 08:37:55;;;;;;;23.93;22.27;;;;;;;;;;5033957;28;20458;-90
2022/06/14 08:40:30;;;;;;;24.37;22.63;;;;;;;;;;5034197;28;20437;-86
2022/06/14 08:42:59;;;;;;;24.03;22.23;;;;;;;;;;5033555;28;20422;-86
2022/06/14 08:45:36;;;;;;;24.17;22.30;;;;;;;;;;5016004;28;21057;-85
2022/06/14 08:48:07;;;;;;;24.90;23.40;;;;;;;;;;5033711;28;20457;-84
2022/06/14 08:50:52;;;;;;;25.27;23.07;;;;;;;;;;5033671;28;20411;-85
2022/06/14 08:53:38;;;;;;;25.00;23.00;;;;;;;;;;5033487;28;20467;-89
2022/06/14 08:56:10;;;;;;;23.53;21.87;;;;;;;;;;5033994;28;20410;-86
2022/06/14 08:58:53;;;;;;;24.50;23.00;;;;;;;;;;5033812;28;20443;-87
2022/06/14 09:01:31;;;;;;;23.97;22.03;;;;;;;;;;5033941;28;20460;-87
2022/06/14 09:04:09;;;;;;;24.97;22.90;;;;;;;;;;5016002;28;20940;-85
2022/06/14 09:06:55;;;;;;;23.57;22.03;;;;;;;;;;5033432;28;20434;-87
2022/06/14 09:09:41;;;;;;;24.10;22.60;;;;;;;;;;5033374;28;20468;-86
2022/06/14 09:12:20;;;;;;;23.53;22.07;;;;;;;;;;5033716;28;20436;-86
2022/06/14 09:15:08;;;;;;;23.90;22.40;;;;;;;;;;5033855;28;20410;-84
2022/06/14 09:17:53;;;;;;;24.40;22.80;;;;;;;;;;5027078;28;20464;-85
2022/06/14 09:20:28;;;;;;;25.13;23.40;;;;;;;;;;5033018;28;20464;-85
2022/06/14 09:23:03;;;;;;;24.37;22.77;;;;;;;;;;5033430;28;20406;-86
2022/06/14 09:25:38;;;;;;;23.73;22.03;;;;;;;;;;5033001;28;20472;-86
2022/06/14 09:28:14;;;;;;;23.47;21.80;;;;;;;;;;5033080;28;20487;-86
2022/06/14 09:30:52;;;;;;;24.87;23.00;;;;;;;;;;5033426;28;20475;-86
2022/06/14 09:33:32;;;;;;;23.03;21.53;;;;;;;;;;5033385;28;20448;-87
2022/06/14 09:36:17;;;;;;;25.20;23.20;;;;;;;;;;5033563;28;20422;-85
2022/06/14 09:39:05;;;;;;;22.90;21.37;;;;;;;;;;5033387;28;20491;-85
2022/06/14 09:41:43;;;;;;;24.93;23.13;;;;;;;;;;5015596;28;20460;-85
2022/06/14 09:44:26;;;;;;;23.90;22.13;;;;;;;;;;5033749;28;20419;-86
2022/06/14 09:47:00;;;;;;;23.40;21.90;;;;;;;;;;5033150;28;21251;-86
2022/06/14 09:50:04;;;;;;;24.90;23.20;;;;;;;;;;5033299;28;20492;-85
2022/06/14 09:52:49;;;;;;;24.90;23.30;;;;;;;;;;5033169;28;20447;-85
2022/06/14 09:55:26;;;;;;;25.30;23.47;;;;;;;;;;5034804;28;21164;-85
2022/06/14 09:58:13;;;;;;;25.57;23.50;;;;;;;;;;5036794;28;20421;-86
2022/06/14 10:00:45;;;;;;;24.03;22.50;;;;;;;;;;5036409;28;20414;-86
2022/06/14 10:03:34;;;;;;;24.27;22.50;;;;;;;;;;5036571;28;20425;-86
2022/06/14 10:06:09;;;;;;;24.40;22.80;;;;;;;;;;5036660;28;20468;-86
2022/06/14 10:08:45;;;;;;;26.40;24.50;;;;;;;;;;5036680;28;20461;-86
2022/06/14 10:11:33;;;;;;;23.53;22.00;;;;;;;;;;5018582;28;20505;-86
2022/06/14 10:14:06;;;;;;;24.60;22.90;;;;;;;;;;5036944;28;20407;-84
2022/06/14 10:16:43;;;;;;;24.03;22.43;;;;;;;;;;5036423;28;20909;-86
2022/06/14 10:19:19;;;;;;;24.20;22.17;;;;;;;;;;5036418;28;20410;-86
2022/06/14 10:21:48;;;;;;;23.60;21.97;;;;;;;;;;5036225;28;20911;-86
2022/06/14 10:24:23;;;;;;;24.03;22.53;;;;;;;;;;5036583;28;20432;-86
2022/06/14 10:30:05;;;;;;;23.23;21.47;;;;;;;;;;5035767;28;20593;-85
2022/06/14 10:32:47;;;;;;;23.60;21.70;;;;;;;;;;5018156;28;20422;-87
2022/06/14 10:35:18;;;;;;;24.17;22.50;;;;;;;;;;5016088;28;20438;-86
2022/06/14 10:37:51;;;;;;;23.97;22.27;;;;;;;;;;5036223;28;20459;-86
2022/06/14 10:40:34;;;;;;;24.27;22.37;;;;;;;;;;5036008;28;20411;-86
2022/06/14 10:43:05;;;;;;;25.23;23.50;;;;;;;;;;5032812;28;20445;-85
2022/06/14 10:45:37;;;;;;;25.50;23.70;;;;;;;;;;5035668;28;20440;-86
2022/06/14 10:48:17;;;;;;;25.27;23.50;;;;;;;;;;5035847;28;20454;-85
2022/06/14 10:50:50;;;;;;;27.33;25.50;;;;;;;;;;5035742;28;20431;-86
2022/06/14 10:53:24;;;;;;;25.17;23.23;;;;;;;;;;5035624;28;20441;-85
2022/06/14 10:55:59;;;;;;;24.87;23.00;;;;;;;;;;5017977;28;20841;-85
2022/06/14 10:58:45;;;;;;;25.67;23.97;;;;;;;;;;5035649;28;20415;-86
2022/06/14 11:01:22;;;;;;;26.17;24.37;;;;;;;;;;5035688;28;20447;-85
2022/06/14 11:03:55;;;;;;;24.80;23.20;;;;;;;;;;5035238;28;20406;-85
2022/06/14 11:06:34;;;;;;;24.20;22.50;;;;;;;;;;5034939;28;20415;-85
2022/06/14 11:09:08;;;;;;;24.23;22.73;;;;;;;;;;5016850;28;20896;-84
2022/06/14 11:11:51;;;;;;;24.83;23.07;;;;;;;;;;5035108;28;20428;-85
2022/06/14 11:14:24;;;;;;;24.30;22.37;;;;;;;;;;5035160;28;20414;-84
2022/06/14 11:17:06;;;;;;;25.77;24.07;;;;;;;;;;5034725;28;20429;-85
2022/06/14 11:19:39;;;;;;;25.17;23.57;;;;;;;;;;5034865;28;20481;-84
2022/06/14 11:22:14;;;;;;;25.60;23.90;;;;;;;;;;5034838;28;20436;-84
2022/06/14 11:24:44;;;;;;;23.67;21.97;;;;;;;;;;5034908;28;20845;-85
2022/06/14 11:27:16;;;;;;;26.63;24.67;;;;;;;;;;5034688;28;20438;-85
2022/06/14 11:29:47;;;;;;;25.87;23.97;;;;;;;;;;5034607;28;20462;-85
2022/06/14 11:32:19;;;;;;;25.53;23.93;;;;;;;;;;5034620;28;20442;-79
2022/06/14 11:34:52;;;;;;;25.20;23.20;;;;;;;;;;5032111;28;20501;-76
2022/06/14 11:37:35;;;;;;;25.37;23.67;;;;;;;;;;5033336;28;20444;-78
2022/06/14 11:40:07;;;;;;;24.77;23.27;;;;;;;;;;5013869;28;20416;-77
2022/06/14 11:42:37;;;;;;;24.63;23.10;;;;;;;;;;5014178;28;20483;-77
2022/06/14 11:45:14;;;;;;;23.23;21.73;;;;;;;;;;5013839;28;20419;-92
2022/06/14 11:47:46;;;;;;;23.83;21.97;;;;;;;;;;4997074;28;20448;-84
2022/06/14 11:50:17;;;;;;;24.43;22.67;;;;;;;;;;5014550;28;20908;-84
2022/06/14 11:52:58;;;;;;;25.20;23.50;;;;;;;;;;4997489;28;20424;-85
2022/06/14 11:55:28;;;;;;;23.90;22.50;;;;;;;;;;4994685;28;20416;-84
2022/06/14 11:58:02;;;;;;;24.40;22.80;;;;;;;;;;4994916;28;20454;-85
2022/06/14 12:00:34;;;;;;;24.20;22.90;;;;;;;;;;4994353;28;20910;-84
2022/06/14 12:03:11;;;;;;;24.20;22.70;;;;;;;;;;4977056;28;20425;-84
2022/06/14 12:05:44;;;;;;;24.80;23.00;;;;;;;;;;4994878;28;20416;-84
2022/06/14 12:08:20;;;;;;;24.63;23.13;;;;;;;;;;4994405;28;20543;-84
2022/06/14 12:10:52;;;;;;;25.60;23.90;;;;;;;;;;4994446;28;20792;-84
2022/06/14 12:13:40;;;;;;;23.93;22.63;;;;;;;;;;4994900;28;20479;-84
2022/06/14 12:16:11;;;;;;;24.53;22.60;;;;;;;;;;4994472;28;20963;-84
2022/06/14 12:18:41;;;;;;;25.07;23.60;;;;;;;;;;4994032;28;20805;-85
2022/06/14 12:21:13;;;;;;;24.40;22.90;;;;;;;;;;4994540;28;20430;-84
2022/06/14 12:23:42;;;;;;;24.30;22.90;;;;;;;;;;4976821;28;20936;-83
2022/06/14 12:29:03;;;;;;;24.27;22.77;;;;;;;;;;5008701;28;20454;-85
2022/06/14 12:31:33;;;;;;;23.73;22.30;;;;;;;;;;5014131;28;20849;-84
2022/06/14 12:34:05;;;;;;;24.10;22.60;;;;;;;;;;4996188;28;20440;-84
2022/06/14 12:36:38;;;;;;;25.93;24.37;;;;;;;;;;5013853;28;20430;-84
2022/06/14 12:39:08;;;;;;;24.87;23.37;;;;;;;;;;5025952;28;21039;-84
2022/06/14 12:41:38;;;;;;;23.73;22.33;;;;;;;;;;5033335;28;20425;-84
2022/06/14 12:44:14;;;;;;;24.07;22.50;;;;;;;;;;5033574;28;20415;-84
2022/06/14 12:46:44;;;;;;;23.30;21.80;;;;;;;;;;5033512;28;20414;-84
2022/06/14 12:49:17;;;;;;;23.00;21.60;;;;;;;;;;5033452;28;20469;-84
2022/06/14 12:51:48;;;;;;;23.80;22.40;;;;;;;;;;5033523;28;20436;-84
2022/06/14 12:54:17;;;;;;;23.73;22.43;;;;;;;;;;5033152;28;20786;-84
2022/06/14 12:56:53;;;;;;;23.70;22.20;;;;;;;;;;5033497;28;20871;-84
2022/06/14 12:59:25;;;;;;;22.50;21.30;;;;;;;;;;5033003;28;20435;-84
2022/06/14 13:01:54;;;;;;;23.80;22.13;;;;;;;;;;5033020;28;20440;-85
2022/06/14 13:04:25;;;;;;;22.90;21.50;;;;;;;;;;5033228;28;20836;-84
2022/06/14 13:06:59;;;;;;;24.33;22.63;;;;;;;;;;5032710;28;20415;-83
2022/06/14 13:09:37;;;;;;;24.67;23.07;;;;;;;;;;5015482;28;20468;-84
2022/06/14 13:12:15;;;;;;;24.47;22.87;;;;;;;;;;4999189;28;20839;-84
2022/06/14 13:14:46;;;;;;;23.50;22.10;;;;;;;;;;5033070;28;20486;-83
2022/06/14 13:17:21;;;;;;;24.00;22.47;;;;;;;;;;5032891;28;20420;-85
2022/06/14 13:19:53;;;;;;;23.57;22.17;;;;;;;;;;5033006;28;20410;-84
2022/06/14 13:22:43;;;;;;;23.30;21.80;;;;;;;;;;5032890;28;20801;-84
2022/06/14 13:25:19;;;;;;;24.40;22.77;;;;;;;;;;5032710;28;20463;-84
2022/06/14 13:27:51;;;;;;;24.30;22.90;;;;;;;;;;5032724;28;20440;-85
2022/06/14 13:30:21;;;;;;;24.67;23.17;;;;;;;;;;5036242;28;20483;-85
2022/06/14 13:33:00;;;;;;;23.90;22.50;;;;;;;;;;5037116;28;20425;-83
2022/06/14 13:35:32;;;;;;;24.47;23.17;;;;;;;;;;5036682;28;20406;-86
2022/06/14 13:38:01;;;;;;;25.13;23.67;;;;;;;;;;5036794;28;20479;-86
2022/06/14 13:40:32;;;;;;;23.93;22.60;;;;;;;;;;5037198;28;20435;-86
2022/06/14 13:43:04;;;;;;;25.07;23.47;;;;;;;;;;5037073;28;20440;-85
2022/06/14 13:45:39;;;;;;;23.50;22.07;;;;;;;;;;5019534;28;20445;-86
2022/06/14 13:48:10;;;;;;;25.13;23.53;;;;;;;;;;5036758;28;20443;-85
2022/06/14 13:50:42;;;;;;;25.03;23.43;;;;;;;;;;5036766;28;20459;-86
2022/06/14 13:53:12;;;;;;;25.07;23.47;;;;;;;;;;5036459;28;20444;-86
2022/06/14 13:55:42;;;;;;;24.07;22.57;;;;;;;;;;5035015;28;20419;-81
2022/06/14 13:58:12;;;;;;;24.43;22.93;;;;;;;;;;5035328;28;20423;-78
2022/06/14 14:00:44;;;;;;;25.20;23.70;;;;;;;;;;5035623;28;20422;-79
2022/06/14 14:03:17;;;;;;;24.40;22.60;;;;;;;;;;5035940;28;20403;-79
2022/06/14 14:05:49;;;;;;;23.80;22.40;;;;;;;;;;5035364;28;20415;-79
2022/06/14 14:08:18;;;;;;;25.30;23.33;;;;;;;;;;5035124;28;20483;-80
2022/06/14 14:10:49;;;;;;;23.97;22.30;;;;;;;;;;5035368;28;20463;-83
2022/06/14 14:13:20;;;;;;;23.80;22.30;;;;;;;;;;5035706;28;20436;-83
2022/06/14 14:15:52;;;;;;;23.70;22.23;;;;;;;;;;5035896;28;20779;-82
2022/06/14 14:18:27;;;;;;;24.10;22.40;;;;;;;;;;5035824;28;20423;-82
2022/06/14 14:20:58;;;;;;;23.20;21.70;;;;;;;;;;5032479;28;20422;-82
2022/06/14 14:23:39;;;;;;;23.67;22.07;;;;;;;;;;5027368;28;20412;-82
2022/06/14 14:26:09;;;;;;;24.83;23.00;;;;;;;;;;5030355;28;20546;-84
2022/06/14 14:28:43;;;;;;;24.20;22.60;;;;;;;;;;5023739;28;20444;-83
2022/06/14 14:31:14;;;;;;;23.33;21.70;;;;;;;;;;5021077;28;20897;-83
2022/06/14 14:33:46;;;;;;;23.57;21.77;;;;;;;;;;5015822;28;20423;-84
2022/06/14 14:36:17;;;;;;;24.07;22.47;;;;;;;;;;5015465;28;20423;-84
2022/06/14 14:38:49;;;;;;;24.17;22.60;;;;;;;;;;5015661;28;21021;-82
2022/06/14 14:41:37;;;;;;;24.20;22.60;;;;;;;;;;5015079;28;20424;-83
2022/06/14 14:44:09;;;;;;;24.73;23.20;;;;;;;;;;5015934;28;20886;-83
2022/06/14 14:46:39;;;;;;;24.03;22.43;;;;;;;;;;5015764;28;20408;-84
2022/06/14 14:49:09;;;;;;;25.97;24.07;;;;;;;;;;5015286;28;20420;-83
2022/06/14 14:51:40;;;;;;;24.30;22.70;;;;;;;;;;5015681;28;20893;-83
2022/06/14 14:54:14;;;;;;;23.80;22.30;;;;;;;;;;4998114;28;20461;-84
2022/06/14 14:56:44;;;;;;;24.97;23.37;;;;;;;;;;5015464;28;20420;-84
2022/06/14 14:59:17;;;;;;;24.73;23.17;;;;;;;;;;5015610;28;20433;-83
2022/06/14 15:07:38;;;;;;;24.53;22.83;;;;;;;;;;4954133;29;20620;-82
2022/06/14 15:10:08;;;;;;;25.90;24.20;;;;;;;;;;4953911;29;20569;-82
2022/06/14 15:12:37;;;;;;;24.80;23.10;;;;;;;;;;4953883;29;20943;-83